sensor_id;sensor_type;location;lat;lon;timestamp;pressure;altitude;pressure_sealevel;temperature;humidity
20620;BME280;10469;42.720;23.252;2023-12-20T00:01:22;95262.41;;;1.32;100.00
20620;BME280;10469;42.720;23.252;2023-12-20T00:03:47;95262.09;;;1.27;100.00
20620;BME280;10469;42.720;23.252;2023-12-20T00:06:13;95267.03;;;1.30;100.00
20620;BME280;10469;42.720;23.252;2023-12-20T00:08:38;95267.47;;;1.41;100.00
20620;BME280;10469;42.720;23.252;2023-12-20T00:11:04;95266.03;;;1.31;100.00
20620;BME280;10469;42.720;23.252;2023-12-20T00:13:29;95217.50;;;1.23;100.00
20620;BME280;10469;42.720;23.252;2023-12-20T00:15:55;95248.66;;;1.36;100.00
20620;BME280;10469;42.720;23.252;2023-12-20T00:18:20;95259.03;;;1.46;100.00
20620;BME280;10469;42.720;23.252;2023-12-20T00:20:45;95268.00;;;1.29;100.00
20620;BME280;10469;42.720;23.252;2023-12-20T00:23:11;95242.91;;;1.33;100.00
20620;BME280;10469;42.720;23.252;2023-12-20T00:25:37;95248.34;;;1.39;100.00
20620;BME280;10469;42.720;23.252;2023-12-20T00:28:02;95241.59;;;1.29;100.00
20620;BME280;10469;42.720;23.252;2023-12-20T00:30:28;95231.69;;;1.31;100.00
20620;BME280;10469;42.720;23.252;2023-12-20T00:32:54;95223.81;;;1.14;100.00
20620;BME280;10469;42.720;23.252;2023-12-20T00:35:20;95200.41;;;1.03;100.00
20620;BME280;10469;42.720;23.252;2023-12-20T00:37:45;95225.50;;;0.99;100.00
20620;BME280;10469;42.720;23.252;2023-12-20T00:40:11;95215.28;;;1.04;100.00
20620;BME280;10469;42.720;23.252;2023-12-20T00:42:36;95213.94;;;1.08;100.00
20620;BME280;10469;42.720;23.252;2023-12-20T00:45:02;95219.00;;;1.26;100.00
20620;BME280;10469;42.720;23.252;2023-12-20T00:47:30;95186.97;;;0.73;100.00
20620;BME280;10469;42.720;23.252;2023-12-20T00:49:55;95222.94;;;0.66;100.00
20620;BME280;10469;42.720;23.252;2023-12-20T00:52:21;95212.38;;;0.58;100.00
20620;BME280;10469;42.720;23.252;2023-12-20T00:54:48;95210.75;;;0.41;100.00
20620;BME280;10469;42.720;23.252;2023-12-20T00:57:13;95215.53;;;0.54;100.00
20620;BME280;10469;42.720;23.252;2023-12-20T00:59:39;95202.66;;;0.42;100.00
20620;BME280;10469;42.720;23.252;2023-12-20T01:02:05;95219.97;;;0.45;100.00
20620;BME280;10469;42.720;23.252;2023-12-20T01:04:30;95201.84;;;0.42;100.00
20620;BME280;10469;42.720;23.252;2023-12-20T01:06:55;95193.28;;;0.32;100.00
20620;BME280;10469;42.720;23.252;2023-12-20T01:09:21;95203.78;;;0.56;100.00
20620;BME280;10469;42.720;23.252;2023-12-20T01:11:52;95196.25;;;0.37;100.00
20620;BME280;10469;42.720;23.252;2023-12-20T01:14:17;95202.66;;;0.42;100.00
20620;BME280;10469;42.720;23.252;2023-12-20T01:16:43;95189.94;;;0.62;100.00
20620;BME280;10469;42.720;23.252;2023-12-20T01:19:08;95179.22;;;0.56;100.00
20620;BME280;10469;42.720;23.252;2023-12-20T01:21:34;95189.56;;;0.82;100.00
20620;BME280;10469;42.720;23.252;2023-12-20T01:23:59;95177.53;;;0.79;100.00
20620;BME280;10469;42.720;23.252;2023-12-20T01:26:25;95167.28;;;0.84;100.00
20620;BME280;10469;42.720;23.252;2023-12-20T01:28:50;95173.41;;;0.77;100.00
20620;BME280;10469;42.720;23.252;2023-12-20T01:31:16;95178.72;;;0.68;100.00
20620;BME280;10469;42.720;23.252;2023-12-20T01:33:41;95168.81;;;0.70;100.00
20620;BME280;10469;42.720;23.252;2023-12-20T01:36:07;95167.81;;;0.71;100.00
20620;BME280;10469;42.720;23.252;2023-12-20T01:38:33;95173.22;;;0.86;100.00
20620;BME280;10469;42.720;23.252;2023-12-20T01:40:58;95156.25;;;0.72;100.00
20620;BME280;10469;42.720;23.252;2023-12-20T01:43:24;95151.28;;;0.78;100.00
20620;BME280;10469;42.720;23.252;2023-12-20T01:45:50;95129.22;;;0.70;100.00
20620;BME280;10469;42.720;23.252;2023-12-20T01:48:16;95133.53;;;0.63;100.00
20620;BME280;10469;42.720;23.252;2023-12-20T01:50:43;95142.47;;;0.54;100.00
20620;BME280;10469;42.720;23.252;2023-12-20T01:53:10;95129.31;;;0.30;100.00
20620;BME280;10469;42.720;23.252;2023-12-20T01:55:39;95156.00;;;0.43;100.00
20620;BME280;10469;42.720;23.252;2023-12-20T01:58:06;95134.13;;;0.26;100.00
20620;BME280;10469;42.720;23.252;2023-12-20T02:00:33;95148.75;;;0.29;100.00
20620;BME280;10469;42.720;23.252;2023-12-20T02:03:01;95129.47;;;0.28;100.00
20620;BME280;10469;42.720;23.252;2023-12-20T02:05:28;95136.56;;;0.19;100.00
20620;BME280;10469;42.720;23.252;2023-12-20T02:07:54;95134.25;;;0.16;100.00
20620;BME280;10469;42.720;23.252;2023-12-20T02:10:20;95130.31;;;0.29;100.00
20620;BME280;10469;42.720;23.252;2023-12-20T02:12:45;95130.78;;;0.32;100.00
20620;BME280;10469;42.720;23.252;2023-12-20T02:15:11;95131.63;;;0.24;100.00
20620;BME280;10469;42.720;23.252;2023-12-20T02:17:38;95105.94;;;0.02;100.00
20620;BME280;10469;42.720;23.252;2023-12-20T02:20:04;95112.84;;;-0.05;100.00
20620;BME280;10469;42.720;23.252;2023-12-20T02:22:31;95122.75;;;0.09;100.00
20620;BME280;10469;42.720;23.252;2023-12-20T02:24:56;95118.13;;;0.03;100.00
20620;BME280;10469;42.720;23.252;2023-12-20T02:27:22;95105.78;;;-0.37;100.00
20620;BME280;10469;42.720;23.252;2023-12-20T02:29:49;95114.81;;;-0.64;100.00
20620;BME280;10469;42.720;23.252;2023-12-20T02:32:16;95114.16;;;-0.58;100.00
20620;BME280;10469;42.720;23.252;2023-12-20T02:34:42;95083.84;;;-0.62;100.00
20620;BME280;10469;42.720;23.252;2023-12-20T02:37:08;95103.78;;;-0.60;100.00
20620;BME280;10469;42.720;23.252;2023-12-20T02:39:33;95094.22;;;-0.61;100.00
20620;BME280;10469;42.720;23.252;2023-12-20T02:41:59;95098.94;;;-0.89;100.00
20620;BME280;10469;42.720;23.252;2023-12-20T02:44:24;95086.56;;;-0.96;100.00
20620;BME280;10469;42.720;23.252;2023-12-20T02:46:50;95101.53;;;-1.05;100.00
20620;BME280;10469;42.720;23.252;2023-12-20T02:49:15;95096.28;;;-0.97;100.00
20620;BME280;10469;42.720;23.252;2023-12-20T02:51:41;95088.72;;;-0.92;100.00
20620;BME280;10469;42.720;23.252;2023-12-20T02:54:06;95090.22;;;-0.89;100.00
20620;BME280;10469;42.720;23.252;2023-12-20T02:56:32;95092.06;;;-0.82;100.00
20620;BME280;10469;42.720;23.252;2023-12-20T02:58:58;95094.22;;;-0.77;100.00
20620;BME280;10469;42.720;23.252;2023-12-20T03:01:24;95094.44;;;-1.05;100.00
20620;BME280;10469;42.720;23.252;2023-12-20T03:03:49;95102.63;;;-1.24;100.00
20620;BME280;10469;42.720;23.252;2023-12-20T03:06:19;95089.31;;;-1.14;100.00
20620;BME280;10469;42.720;23.252;2023-12-20T03:08:45;95091.13;;;-1.15;100.00
20620;BME280;10469;42.720;23.252;2023-12-20T03:11:11;95085.22;;;-1.09;100.00
20620;BME280;10469;42.720;23.252;2023-12-20T03:13:36;95088.88;;;-1.02;100.00
20620;BME280;10469;42.720;23.252;2023-12-20T03:16:11;95084.75;;;-1.12;100.00
20620;BME280;10469;42.720;23.252;2023-12-20T03:18:37;95085.41;;;-1.02;100.00
20620;BME280;10469;42.720;23.252;2023-12-20T03:21:04;95071.78;;;-0.97;100.00
20620;BME280;10469;42.720;23.252;2023-12-20T03:23:30;95070.97;;;-0.90;100.00
20620;BME280;10469;42.720;23.252;2023-12-20T03:25:57;95084.41;;;-1.09;100.00
20620;BME280;10469;42.720;23.252;2023-12-20T03:28:23;95076.16;;;-1.14;100.00
20620;BME280;10469;42.720;23.252;2023-12-20T03:30:49;95081.28;;;-1.47;100.00
20620;BME280;10469;42.720;23.252;2023-12-20T03:33:14;95070.19;;;-1.33;100.00
20620;BME280;10469;42.720;23.252;2023-12-20T03:35:40;95071.22;;;-1.17;100.00
20620;BME280;10469;42.720;23.252;2023-12-20T03:38:06;95068.59;;;-1.17;100.00
20620;BME280;10469;42.720;23.252;2023-12-20T03:40:31;95067.38;;;-1.31;100.00
20620;BME280;10469;42.720;23.252;2023-12-20T03:42:56;95057.03;;;-1.33;100.00
20620;BME280;10469;42.720;23.252;2023-12-20T03:45:22;95072.16;;;-1.27;100.00
20620;BME280;10469;42.720;23.252;2023-12-20T03:47:49;95053.09;;;-1.29;100.00
20620;BME280;10469;42.720;23.252;2023-12-20T03:50:15;95053.13;;;-1.20;100.00
20620;BME280;10469;42.720;23.252;2023-12-20T03:52:40;95067.09;;;-1.28;100.00
20620;BME280;10469;42.720;23.252;2023-12-20T03:55:06;95060.47;;;-1.40;100.00
20620;BME280;10469;42.720;23.252;2023-12-20T03:57:31;95051.22;;;-1.44;100.00
20620;BME280;10469;42.720;23.252;2023-12-20T03:59:57;95036.19;;;-1.60;100.00
20620;BME280;10469;42.720;23.252;2023-12-20T04:02:22;95059.78;;;-1.50;100.00
20620;BME280;10469;42.720;23.252;2023-12-20T04:04:48;95050.97;;;-1.33;100.00
20620;BME280;10469;42.720;23.252;2023-12-20T04:07:13;95051.59;;;-1.31;100.00
20620;BME280;10469;42.720;23.252;2023-12-20T04:09:40;95054.16;;;-1.05;100.00
20620;BME280;10469;42.720;23.252;2023-12-20T04:12:06;95046.91;;;-1.11;100.00
20620;BME280;10469;42.720;23.252;2023-12-20T04:14:32;95042.25;;;-1.26;100.00
20620;BME280;10469;42.720;23.252;2023-12-20T04:16:57;95039.63;;;-1.34;100.00
20620;BME280;10469;42.720;23.252;2023-12-20T04:19:23;95001.72;;;-1.57;100.00
20620;BME280;10469;42.720;23.252;2023-12-20T04:21:48;95028.41;;;-1.36;100.00
20620;BME280;10469;42.720;23.252;2023-12-20T04:24:14;95032.09;;;-1.63;100.00
20620;BME280;10469;42.720;23.252;2023-12-20T04:26:39;95032.16;;;-1.46;100.00
20620;BME280;10469;42.720;23.252;2023-12-20T04:29:05;95030.56;;;-1.31;100.00
20620;BME280;10469;42.720;23.252;2023-12-20T04:31:30;95029.81;;;-1.58;100.00
20620;BME280;10469;42.720;23.252;2023-12-20T04:33:56;95027.00;;;-1.56;100.00
20620;BME280;10469;42.720;23.252;2023-12-20T04:36:21;95024.53;;;-1.66;100.00
20620;BME280;10469;42.720;23.252;2023-12-20T04:38:47;95033.00;;;-1.46;100.00
20620;BME280;10469;42.720;23.252;2023-12-20T04:41:16;95024.75;;;-1.51;100.00
20620;BME280;10469;42.720;23.252;2023-12-20T04:43:44;94997.28;;;-1.57;100.00
20620;BME280;10469;42.720;23.252;2023-12-20T04:46:09;95027.19;;;-1.58;100.00
20620;BME280;10469;42.720;23.252;2023-12-20T04:48:35;95027.63;;;-1.70;100.00
20620;BME280;10469;42.720;23.252;2023-12-20T04:51:03;95009.72;;;-2.01;100.00
20620;BME280;10469;42.720;23.252;2023-12-20T04:53:29;95001.50;;;-2.06;100.00
20620;BME280;10469;42.720;23.252;2023-12-20T04:55:54;94994.75;;;-2.09;100.00
20620;BME280;10469;42.720;23.252;2023-12-20T04:58:20;95023.50;;;-2.07;100.00
20620;BME280;10469;42.720;23.252;2023-12-20T05:00:45;95000.88;;;-2.52;100.00
20620;BME280;10469;42.720;23.252;2023-12-20T05:03:11;95026.91;;;-2.41;100.00
20620;BME280;10469;42.720;23.252;2023-12-20T05:05:36;95026.97;;;-2.33;100.00
20620;BME280;10469;42.720;23.252;2023-12-20T05:08:02;95007.94;;;-2.27;100.00
20620;BME280;10469;42.720;23.252;2023-12-20T05:10:28;95001.03;;;-2.28;100.00
20620;BME280;10469;42.720;23.252;2023-12-20T05:12:53;95015.16;;;-2.29;100.00
20620;BME280;10469;42.720;23.252;2023-12-20T05:15:19;95014.41;;;-2.39;100.00
20620;BME280;10469;42.720;23.252;2023-12-20T05:17:44;95005.25;;;-2.35;100.00
20620;BME280;10469;42.720;23.252;2023-12-20T05:20:10;95010.47;;;-2.17;100.00
20620;BME280;10469;42.720;23.252;2023-12-20T05:22:36;94992.88;;;-2.42;100.00
20620;BME280;10469;42.720;23.252;2023-12-20T05:25:01;94979.28;;;-2.38;100.00
20620;BME280;10469;42.720;23.252;2023-12-20T05:27:27;94991.97;;;-2.33;100.00
20620;BME280;10469;42.720;23.252;2023-12-20T05:29:53;95003.19;;;-2.49;100.00
20620;BME280;10469;42.720;23.252;2023-12-20T05:32:22;94971.00;;;-2.51;100.00
20620;BME280;10469;42.720;23.252;2023-12-20T05:34:48;94995.50;;;-2.24;100.00
20620;BME280;10469;42.720;23.252;2023-12-20T05:37:14;94975.03;;;-2.39;100.00
20620;BME280;10469;42.720;23.252;2023-12-20T05:39:39;94987.84;;;-2.36;100.00
20620;BME280;10469;42.720;23.252;2023-12-20T05:42:05;94986.69;;;-2.15;100.00
20620;BME280;10469;42.720;23.252;2023-12-20T05:44:30;94991.41;;;-2.45;100.00
20620;BME280;10469;42.720;23.252;2023-12-20T05:46:56;94984.56;;;-2.38;100.00
20620;BME280;10469;42.720;23.252;2023-12-20T05:49:21;94984.88;;;-2.41;100.00
20620;BME280;10469;42.720;23.252;2023-12-20T05:51:47;94969.88;;;-2.48;100.00
20620;BME280;10469;42.720;23.252;2023-12-20T05:54:13;94981.03;;;-2.29;100.00
20620;BME280;10469;42.720;23.252;2023-12-20T05:56:39;94983.31;;;-2.52;100.00
20620;BME280;10469;42.720;23.252;2023-12-20T05:59:04;94978.13;;;-2.43;100.00
20620;BME280;10469;42.720;23.252;2023-12-20T06:01:30;94979.94;;;-2.44;100.00
20620;BME280;10469;42.720;23.252;2023-12-20T06:03:55;94975.38;;;-2.34;100.00
20620;BME280;10469;42.720;23.252;2023-12-20T06:06:21;94936.69;;;-2.84;100.00
20620;BME280;10469;42.720;23.252;2023-12-20T06:08:49;94939.41;;;-2.67;100.00
20620;BME280;10469;42.720;23.252;2023-12-20T06:11:15;94955.66;;;-2.38;100.00
20620;BME280;10469;42.720;23.252;2023-12-20T06:13:40;94976.41;;;-2.27;100.00
20620;BME280;10469;42.720;23.252;2023-12-20T06:16:06;94945.63;;;-2.68;100.00
20620;BME280;10469;42.720;23.252;2023-12-20T06:18:34;94973.84;;;-2.44;100.00
20620;BME280;10469;42.720;23.252;2023-12-20T06:21:02;94973.09;;;-2.37;100.00
20620;BME280;10469;42.720;23.252;2023-12-20T06:23:27;94969.28;;;-2.08;100.00
20620;BME280;10469;42.720;23.252;2023-12-20T06:25:53;94969.16;;;-2.07;100.00
20620;BME280;10469;42.720;23.252;2023-12-20T06:28:18;94952.91;;;-2.02;100.00
20620;BME280;10469;42.720;23.252;2023-12-20T06:30:44;94975.31;;;-1.82;100.00
20620;BME280;10469;42.720;23.252;2023-12-20T06:33:11;94935.72;;;-1.88;100.00
20620;BME280;10469;42.720;23.252;2023-12-20T06:35:36;94958.13;;;-1.68;100.00
20620;BME280;10469;42.720;23.252;2023-12-20T06:38:02;94977.69;;;-1.62;100.00
20620;BME280;10469;42.720;23.252;2023-12-20T06:40:28;94952.63;;;-2.25;100.00
20620;BME280;10469;42.720;23.252;2023-12-20T06:42:53;94952.16;;;-1.78;100.00
20620;BME280;10469;42.720;23.252;2023-12-20T06:45:19;94945.47;;;-1.72;100.00
20620;BME280;10469;42.720;23.252;2023-12-20T06:47:45;94950.28;;;-1.60;100.00
20620;BME280;10469;42.720;23.252;2023-12-20T06:50:10;94945.56;;;-1.23;100.00
20620;BME280;10469;42.720;23.252;2023-12-20T06:52:36;94947.41;;;-0.91;100.00
20620;BME280;10469;42.720;23.252;2023-12-20T06:55:01;94950.34;;;-0.45;100.00
20620;BME280;10469;42.720;23.252;2023-12-20T06:57:27;94942.47;;;-1.03;100.00
20620;BME280;10469;42.720;23.252;2023-12-20T06:59:53;94944.94;;;-0.60;100.00
20620;BME280;10469;42.720;23.252;2023-12-20T07:02:18;94942.63;;;-1.12;100.00
20620;BME280;10469;42.720;23.252;2023-12-20T07:04:44;94943.94;;;-0.84;100.00
20620;BME280;10469;42.720;23.252;2023-12-20T07:07:09;94944.28;;;-1.03;100.00
20620;BME280;10469;42.720;23.252;2023-12-20T07:09:35;94949.56;;;-1.03;100.00
20620;BME280;10469;42.720;23.252;2023-12-20T07:12:00;94925.66;;;-1.26;100.00
20620;BME280;10469;42.720;23.252;2023-12-20T07:14:25;94919.13;;;-0.97;100.00
20620;BME280;10469;42.720;23.252;2023-12-20T07:16:51;94932.09;;;-0.80;100.00
20620;BME280;10469;42.720;23.252;2023-12-20T07:19:17;94918.09;;;-1.21;100.00
20620;BME280;10469;42.720;23.252;2023-12-20T07:21:43;94931.44;;;-1.06;100.00
20620;BME280;10469;42.720;23.252;2023-12-20T07:24:08;94941.81;;;-0.88;100.00
20620;BME280;10469;42.720;23.252;2023-12-20T07:26:35;94921.88;;;-1.40;100.00
20620;BME280;10469;42.720;23.252;2023-12-20T07:29:00;94930.59;;;-1.23;100.00
20620;BME280;10469;42.720;23.252;2023-12-20T07:31:26;94909.25;;;-1.20;100.00
20620;BME280;10469;42.720;23.252;2023-12-20T07:33:51;94913.16;;;-1.40;100.00
20620;BME280;10469;42.720;23.252;2023-12-20T07:36:17;94904.97;;;-1.29;100.00
20620;BME280;10469;42.720;23.252;2023-12-20T07:38:44;94930.69;;;-1.65;100.00
20620;BME280;10469;42.720;23.252;2023-12-20T07:41:10;94934.69;;;-1.45;100.00
20620;BME280;10469;42.720;23.252;2023-12-20T07:43:36;94925.41;;;-1.73;100.00
20620;BME280;10469;42.720;23.252;2023-12-20T07:46:06;94906.06;;;-1.56;100.00
20620;BME280;10469;42.720;23.252;2023-12-20T07:48:33;94920.41;;;-1.42;100.00
20620;BME280;10469;42.720;23.252;2023-12-20T07:50:58;94909.22;;;-0.87;100.00
20620;BME280;10469;42.720;23.252;2023-12-20T07:53:24;94896.91;;;-1.28;100.00
20620;BME280;10469;42.720;23.252;2023-12-20T07:55:49;94827.00;;;-1.63;100.00
20620;BME280;10469;42.720;23.252;2023-12-20T07:58:15;94923.22;;;-0.87;100.00
20620;BME280;10469;42.720;23.252;2023-12-20T08:00:40;94923.72;;;-1.08;100.00
20620;BME280;10469;42.720;23.252;2023-12-20T08:03:06;94914.97;;;-0.67;100.00
20620;BME280;10469;42.720;23.252;2023-12-20T08:05:32;94918.28;;;-0.98;100.00
20620;BME280;10469;42.720;23.252;2023-12-20T08:07:57;94915.31;;;-0.87;100.00
20620;BME280;10469;42.720;23.252;2023-12-20T08:10:23;94907.75;;;-1.14;100.00
20620;BME280;10469;42.720;23.252;2023-12-20T08:12:49;94909.75;;;-1.16;100.00
20620;BME280;10469;42.720;23.252;2023-12-20T08:15:14;94897.56;;;-1.34;100.00
20620;BME280;10469;42.720;23.252;2023-12-20T08:17:40;94908.44;;;-1.12;100.00
20620;BME280;10469;42.720;23.252;2023-12-20T08:20:06;94908.75;;;-0.99;100.00
20620;BME280;10469;42.720;23.252;2023-12-20T08:22:31;94885.81;;;-0.58;100.00
20620;BME280;10469;42.720;23.252;2023-12-20T08:24:57;94882.06;;;-0.55;100.00
20620;BME280;10469;42.720;23.252;2023-12-20T08:27:22;94895.72;;;-0.60;100.00
20620;BME280;10469;42.720;23.252;2023-12-20T08:29:48;94899.34;;;-0.69;100.00
20620;BME280;10469;42.720;23.252;2023-12-20T08:32:15;94870.91;;;-0.82;100.00
20620;BME280;10469;42.720;23.252;2023-12-20T08:34:40;94886.59;;;-0.33;100.00
20620;BME280;10469;42.720;23.252;2023-12-20T08:37:06;94868.56;;;-0.60;100.00
20620;BME280;10469;42.720;23.252;2023-12-20T08:39:31;94879.50;;;-0.32;100.00
20620;BME280;10469;42.720;23.252;2023-12-20T08:41:58;94823.69;;;-0.36;100.00
20620;BME280;10469;42.720;23.252;2023-12-20T08:44:24;94843.94;;;-0.36;100.00
20620;BME280;10469;42.720;23.252;2023-12-20T08:46:49;94849.00;;;-0.27;100.00
20620;BME280;10469;42.720;23.252;2023-12-20T08:49:15;94860.91;;;0.40;100.00
20620;BME280;10469;42.720;23.252;2023-12-20T08:51:40;94860.56;;;0.66;100.00
20620;BME280;10469;42.720;23.252;2023-12-20T08:54:07;94848.19;;;0.43;100.00
20620;BME280;10469;42.720;23.252;2023-12-20T08:56:35;94859.16;;;0.78;100.00
20620;BME280;10469;42.720;23.252;2023-12-20T08:59:01;94834.50;;;0.86;100.00
20620;BME280;10469;42.720;23.252;2023-12-20T09:01:26;94846.84;;;0.70;100.00
20620;BME280;10469;42.720;23.252;2023-12-20T09:03:52;94821.41;;;0.92;100.00
20620;BME280;10469;42.720;23.252;2023-12-20T09:06:17;94815.66;;;1.27;100.00
20620;BME280;10469;42.720;23.252;2023-12-20T09:08:43;94819.22;;;1.48;100.00
20620;BME280;10469;42.720;23.252;2023-12-20T09:11:08;94797.53;;;1.53;100.00
20620;BME280;10469;42.720;23.252;2023-12-20T09:13:33;94800.75;;;0.96;100.00
20620;BME280;10469;42.720;23.252;2023-12-20T09:15:59;94793.66;;;1.11;100.00
20620;BME280;10469;42.720;23.252;2023-12-20T09:18:25;94789.94;;;1.20;100.00
20620;BME280;10469;42.720;23.252;2023-12-20T09:20:50;94778.47;;;1.28;100.00
20620;BME280;10469;42.720;23.252;2023-12-20T09:23:16;94773.16;;;0.84;100.00
20620;BME280;10469;42.720;23.252;2023-12-20T09:25:42;94768.47;;;1.23;100.00
20620;BME280;10469;42.720;23.252;2023-12-20T09:28:08;94761.25;;;1.32;100.00
20620;BME280;10469;42.720;23.252;2023-12-20T09:30:34;94734.22;;;1.00;100.00
20620;BME280;10469;42.720;23.252;2023-12-20T09:33:00;94762.06;;;1.33;100.00
20620;BME280;10469;42.720;23.252;2023-12-20T09:35:26;94740.66;;;1.57;100.00
20620;BME280;10469;42.720;23.252;2023-12-20T09:37:51;94738.47;;;1.16;100.00
20620;BME280;10469;42.720;23.252;2023-12-20T09:40:20;94741.84;;;1.40;100.00
20620;BME280;10469;42.720;23.252;2023-12-20T09:42:55;94736.72;;;1.68;100.00
20620;BME280;10469;42.720;23.252;2023-12-20T09:45:21;94729.00;;;0.92;100.00
20620;BME280;10469;42.720;23.252;2023-12-20T09:47:49;94726.75;;;1.04;100.00
20620;BME280;10469;42.720;23.252;2023-12-20T09:50:17;94710.50;;;0.78;100.00
20620;BME280;10469;42.720;23.252;2023-12-20T09:52:43;94719.44;;;0.77;100.00
20620;BME280;10469;42.720;23.252;2023-12-20T09:55:10;94723.22;;;0.59;100.00
20620;BME280;10469;42.720;23.252;2023-12-20T09:57:35;94695.66;;;0.62;100.00
20620;BME280;10469;42.720;23.252;2023-12-20T10:00:01;94716.53;;;1.01;100.00
20620;BME280;10469;42.720;23.252;2023-12-20T10:02:26;94692.06;;;0.92;100.00
20620;BME280;10469;42.720;23.252;2023-12-20T10:04:54;94697.03;;;0.72;100.00
20620;BME280;10469;42.720;23.252;2023-12-20T10:07:19;94704.16;;;1.16;100.00
20620;BME280;10469;42.720;23.252;2023-12-20T10:09:46;94697.81;;;2.19;100.00
20620;BME280;10469;42.720;23.252;2023-12-20T10:12:12;94687.09;;;2.28;100.00
20620;BME280;10469;42.720;23.252;2023-12-20T10:14:39;94706.25;;;2.79;100.00
20620;BME280;10469;42.720;23.252;2023-12-20T10:17:05;94671.47;;;3.23;100.00
20620;BME280;10469;42.720;23.252;2023-12-20T10:19:32;94679.31;;;3.38;100.00
20620;BME280;10469;42.720;23.252;2023-12-20T10:21:59;94666.03;;;2.97;100.00
20620;BME280;10469;42.720;23.252;2023-12-20T10:24:25;94667.88;;;3.38;100.00
20620;BME280;10469;42.720;23.252;2023-12-20T10:27:01;94660.38;;;4.36;100.00
20620;BME280;10469;42.720;23.252;2023-12-20T10:29:32;94634.03;;;5.97;100.00
20620;BME280;10469;42.720;23.252;2023-12-20T10:31:58;94640.91;;;7.11;100.00
20620;BME280;10469;42.720;23.252;2023-12-20T10:34:24;94620.34;;;5.42;100.00
20620;BME280;10469;42.720;23.252;2023-12-20T10:36:49;94635.50;;;6.99;100.00
20620;BME280;10469;42.720;23.252;2023-12-20T10:39:15;94613.59;;;7.52;100.00
20620;BME280;10469;42.720;23.252;2023-12-20T10:41:41;94629.91;;;6.58;100.00
20620;BME280;10469;42.720;23.252;2023-12-20T10:44:08;94625.94;;;7.65;100.00
20620;BME280;10469;42.720;23.252;2023-12-20T10:46:37;94597.69;;;9.07;100.00
20620;BME280;10469;42.720;23.252;2023-12-20T10:49:05;94599.34;;;9.08;100.00
20620;BME280;10469;42.720;23.252;2023-12-20T10:51:33;94601.06;;;9.02;100.00
20620;BME280;10469;42.720;23.252;2023-12-20T10:54:00;94582.50;;;8.18;100.00
20620;BME280;10469;42.720;23.252;2023-12-20T10:56:27;94575.97;;;8.56;100.00
20620;BME280;10469;42.720;23.252;2023-12-20T10:58:56;94604.22;;;9.74;100.00
20620;BME280;10469;42.720;23.252;2023-12-20T11:01:23;94594.47;;;10.25;100.00
20620;BME280;10469;42.720;23.252;2023-12-20T11:03:51;94591.44;;;10.22;100.00
20620;BME280;10469;42.720;23.252;2023-12-20T11:06:27;94594.38;;;9.51;100.00
20620;BME280;10469;42.720;23.252;2023-12-20T11:09:20;94571.75;;;10.78;100.00
20620;BME280;10469;42.720;23.252;2023-12-20T11:14:38;94553.13;;;9.76;100.00
20620;BME280;10469;42.720;23.252;2023-12-20T11:17:09;94547.38;;;8.92;100.00
20620;BME280;10469;42.720;23.252;2023-12-20T11:22:29;94524.63;;;10.49;100.00
20620;BME280;10469;42.720;23.252;2023-12-20T11:24:59;94530.28;;;11.47;100.00
20620;BME280;10469;42.720;23.252;2023-12-20T11:27:27;94530.53;;;11.67;100.00
20620;BME280;10469;42.720;23.252;2023-12-20T11:29:55;94504.75;;;11.22;100.00
20620;BME280;10469;42.720;23.252;2023-12-20T11:35:00;94524.03;;;12.76;100.00
20620;BME280;10469;42.720;23.252;2023-12-20T11:37:30;94509.50;;;11.15;100.00
20620;BME280;10469;42.720;23.252;2023-12-20T11:40:06;94506.56;;;12.42;100.00
20620;BME280;10469;42.720;23.252;2023-12-20T11:42:45;94496.41;;;11.41;100.00
20620;BME280;10469;42.720;23.252;2023-12-20T11:45:15;94494.00;;;11.88;100.00
20620;BME280;10469;42.720;23.252;2023-12-20T11:47:47;94485.66;;;11.90;100.00
20620;BME280;10469;42.720;23.252;2023-12-20T11:50:15;94468.16;;;10.72;100.00
20620;BME280;10469;42.720;23.252;2023-12-20T11:52:41;94469.41;;;8.36;100.00
20620;BME280;10469;42.720;23.252;2023-12-20T11:55:06;94480.81;;;9.93;100.00
20620;BME280;10469;42.720;23.252;2023-12-20T11:57:33;94460.53;;;9.80;100.00
20620;BME280;10469;42.720;23.252;2023-12-20T11:59:58;94462.94;;;9.65;100.00
20620;BME280;10469;42.720;23.252;2023-12-20T12:02:24;94459.81;;;11.13;100.00
20620;BME280;10469;42.720;23.252;2023-12-20T12:04:50;94449.31;;;10.28;100.00
20620;BME280;10469;42.720;23.252;2023-12-20T12:07:18;94451.63;;;8.42;100.00
20620;BME280;10469;42.720;23.252;2023-12-20T12:09:45;94438.38;;;9.11;100.00
20620;BME280;10469;42.720;23.252;2023-12-20T12:12:12;94443.44;;;9.24;100.00
20620;BME280;10469;42.720;23.252;2023-12-20T12:14:38;94430.53;;;8.92;100.00
20620;BME280;10469;42.720;23.252;2023-12-20T12:17:10;94426.28;;;9.65;100.00
20620;BME280;10469;42.720;23.252;2023-12-20T12:19:35;94422.38;;;8.99;100.00
20620;BME280;10469;42.720;23.252;2023-12-20T12:22:13;94431.13;;;9.51;100.00
20620;BME280;10469;42.720;23.252;2023-12-20T12:24:48;94427.25;;;9.30;100.00
20620;BME280;10469;42.720;23.252;2023-12-20T12:27:14;94414.25;;;9.51;100.00
20620;BME280;10469;42.720;23.252;2023-12-20T12:29:42;94423.63;;;8.33;100.00
20620;BME280;10469;42.720;23.252;2023-12-20T12:32:25;94415.28;;;8.64;100.00
20620;BME280;10469;42.720;23.252;2023-12-20T12:34:50;94424.53;;;7.79;100.00
20620;BME280;10469;42.720;23.252;2023-12-20T12:37:16;94415.06;;;6.82;100.00
20620;BME280;10469;42.720;23.252;2023-12-20T12:39:41;94436.28;;;7.37;100.00
20620;BME280;10469;42.720;23.252;2023-12-20T12:42:07;94431.25;;;7.17;100.00
20620;BME280;10469;42.720;23.252;2023-12-20T12:44:33;94417.66;;;6.88;100.00
20620;BME280;10469;42.720;23.252;2023-12-20T12:46:58;94428.63;;;6.25;100.00
20620;BME280;10469;42.720;23.252;2023-12-20T12:49:24;94419.69;;;6.19;100.00